Time;durP1;ratioP1;P1;durP2;ratioP2;P2;SDS_P1;SDS_P2;PMS_P1;PMS_P2;Temp;Humidity;BMP_temperature;BMP_pressure;BME280_temperature;BME280_humidity;BME280_pressure;Samples;Min_cycle;Max_cycle;Signal;HPM_P1;HPM_P2
2023/04/22 07:02:15;;;;;;;16.70;12.80;;;;;;;18.13;58.02;100108.44;176897;1285;580025;-82
2023/04/22 07:06:18;;;;;;;17.00;13.50;;;;;;;18.13;56.31;100107.01;179318;1260;317243;-87
2023/04/22 07:10:21;;;;;;;18.50;11.50;;;;;;;18.10;55.65;100104.63;179071;1259;46184;-87
2023/04/22 07:14:26;;;;;;;20.80;13.00;;;;;;;18.08;56.18;100108.16;179174;1263;46141;-89
2023/04/22 07:18:29;;;;;;;15.30;11.80;;;;;;;18.03;56.62;100106.73;179934;1260;44532;-86
2023/04/22 07:22:33;;;;;;;22.50;15.70;;;;;;;18.00;56.71;100108.83;180290;1259;45979;-87
2023/04/22 07:26:37;;;;;;;20.20;13.10;;;;;;;18.13;58.76;100107.02;179371;1259;58343;-88
2023/04/22 07:30:40;;;;;;;23.00;15.40;;;;;;;18.34;57.54;100104.92;178964;1261;46243;-88
2023/04/22 07:34:43;;;;;;;19.30;14.20;;;;;;;18.50;56.95;100103.64;179028;1259;46043;-89
2023/04/22 07:38:47;;;;;;;21.00;16.60;;;;;;;18.60;56.86;100099.74;179172;1260;45335;-90
2023/04/22 07:42:50;;;;;;;22.30;15.20;;;;;;;18.70;57.38;100099.92;179323;1259;46099;-89
2023/04/22 07:46:54;;;;;;;31.40;20.80;;;;;;;18.75;57.92;100101.02;178732;1260;59384;-89
2023/04/22 07:50:58;;;;;;;28.80;20.50;;;;;;;18.78;56.87;100102.63;179360;1259;46028;-89
2023/04/22 07:55:03;;;;;;;15.30;13.60;;;;;;;18.70;56.72;100099.56;180120;1259;44818;-88
2023/04/22 07:59:10;;;;;;;18.50;13.50;;;;;;;18.67;57.45;100092.37;180556;1257;44541;-88
2023/04/22 08:19:55;;;;;;;16.70;13.30;;;;;;;18.81;56.66;100102.30;180343;1260;44670;-64
2023/04/22 08:23:58;;;;;;;15.10;9.90;;;;;;;18.97;58.06;100097.70;179837;1260;44789;-63
2023/04/22 08:28:01;;;;;;;15.90;12.70;;;;;;;19.15;59.44;100095.31;180052;1260;44113;-63
2023/04/22 08:32:04;;;;;;;21.10;12.40;;;;;;;19.22;58.11;100094.67;179510;1256;82477;-86
2023/04/22 08:36:09;;;;;;;21.20;14.30;;;;;;;19.23;58.71;100096.90;179961;1260;45906;-85
2023/04/22 08:40:14;;;;;;;24.80;18.30;;;;;;;19.16;58.95;100095.48;178353;1263;44848;-89
2023/04/22 08:44:21;;;;;;;25.70;19.70;;;;;;;19.21;58.99;100093.18;179249;1261;46034;-90
2023/04/22 08:48:25;;;;;;;14.70;13.20;;;;;;;19.27;57.06;100094.33;180263;1260;46055;-88
2023/04/22 08:52:30;;;;;;;14.70;10.30;;;;;;;19.30;55.56;100090.55;180146;1261;58343;-88
2023/04/22 08:56:36;;;;;;;12.30;10.10;;;;;;;19.36;54.08;100089.55;179525;1260;46642;-86
2023/04/22 09:00:43;;;;;;;15.20;10.40;;;;;;;19.49;53.37;100086.76;179549;1263;46321;-88
2023/04/22 09:04:49;;;;;;;13.30;9.90;;;;;;;19.67;55.26;100087.00;180259;1259;44709;-85
2023/04/22 09:08:54;;;;;;;12.00;8.60;;;;;;;19.74;54.63;100086.71;179523;1260;44046;-88
2023/04/22 09:13:00;;;;;;;11.20;9.20;;;;;;;19.84;55.17;100085.19;179303;1261;60713;-88
2023/04/22 09:17:04;;;;;;;13.00;8.20;;;;;;;19.90;54.54;100085.01;179128;1260;46133;-84
2023/04/22 09:21:07;;;;;;;12.90;8.70;;;;;;;19.92;54.48;100083.21;178985;1260;46128;-84
2023/04/22 09:25:16;;;;;;;14.60;11.10;;;;;;;19.99;54.90;100083.83;179409;1261;46033;-87
2023/04/22 09:29:19;;;;;;;19.10;11.80;;;;;;;20.09;55.72;100080.77;179641;1260;46121;-89
2023/04/22 09:33:25;;;;;;;13.30;9.60;;;;;;;20.12;55.59;100076.61;178873;1260;58936;-90
2023/04/22 09:37:29;;;;;;;13.00;9.90;;;;;;;20.03;54.78;100073.11;180462;1260;44288;-88
2023/04/22 09:41:55;;;;;;;11.70;9.10;;;;;;;19.99;54.41;100065.67;180041;1259;44318;-89
2023/04/22 09:46:01;;;;;;;14.30;8.90;;;;;;;20.07;53.55;100063.98;179823;1260;46044;-89
2023/04/22 09:50:09;;;;;;;10.00;9.00;;;;;;;20.14;53.89;100062.98;179972;1259;46984;-91
2023/04/22 09:59:00;;;;;;;11.70;5.70;;;;;;;20.33;52.55;100055.83;177938;1262;45973;-85
2023/04/22 10:03:03;;;;;;;;;;;;;;;20.42;50.27;100052.16;177782;1261;46087;-85
2023/04/22 10:07:09;;;;;;;9.00;4.90;;;;;;;20.52;49.69;100053.43;178554;1262;45786;-87
2023/04/22 10:11:12;;;;;;;12.00;6.90;;;;;;;20.54;47.99;100051.20;178351;1262;45872;-85
2023/04/22 10:15:15;;;;;;;9.20;5.40;;;;;;;20.63;50.14;100056.79;178535;1262;59144;-85
2023/04/22 10:19:23;;;;;;;6.90;4.90;;;;;;;20.67;47.84;100053.67;177470;1265;46117;-86
2023/04/22 10:23:31;;;;;;;8.70;7.00;;;;;;;20.74;46.42;100047.25;178008;1262;46021;-86
2023/04/22 10:27:34;;;;;;;7.80;5.90;;;;;;;20.72;46.78;100041.02;178372;1265;45734;-86
2023/04/22 10:31:38;;;;;;;9.30;4.40;;;;;;;20.67;46.57;100033.04;178488;1262;44060;-87
2023/04/22 10:36:13;;;;;;;4.70;4.20;;;;;;;20.73;44.41;100029.58;178218;1266;58387;-87
2023/04/22 10:40:17;;;;;;;4.70;4.20;;;;;;;20.82;44.09;100022.27;178498;1262;46567;-87
2023/04/22 10:44:21;;;;;;;5.60;4.80;;;;;;;20.80;43.09;100019.07;178511;1262;45969;-87
2023/04/22 10:48:47;;;;;;;9.00;5.90;;;;;;;20.81;43.68;100017.67;178113;1262;46122;-87
2023/04/22 10:53:02;;;;;;;7.40;5.70;;;;;;;20.79;44.14;100015.08;178829;1262;45197;-87
2023/04/22 10:57:06;;;;;;;;;;;;;;;20.82;45.11;100012.02;180193;1262;58213;-87
2023/04/22 11:01:16;;;;;;;10.60;6.20;;;;;;;20.85;45.42;100008.21;179724;1266;45707;-86
2023/04/22 11:05:22;;;;;;;10.50;6.20;;;;;;;20.78;46.37;100003.88;178771;1262;46114;-87
2023/04/22 11:09:28;;;;;;;8.30;5.40;;;;;;;20.74;44.97;99999.02;178683;1261;44742;-85
2023/04/22 11:13:31;;;;;;;7.90;5.70;;;;;;;20.82;45.24;99995.42;178907;1265;46081;-84
2023/04/22 11:17:35;;;;;;;8.90;5.40;;;;;;;20.74;46.94;99992.84;178447;1262;58376;-86
2023/04/22 11:21:39;;;;;;;6.30;5.70;;;;;;;20.77;46.08;99985.28;180271;1262;44109;-86
2023/04/22 11:25:42;;;;;;;7.00;5.70;;;;;;;20.80;44.01;99975.30;180243;1263;44155;-85
2023/04/22 11:29:59;;;;;;;6.20;5.60;;;;;;;20.93;44.62;99971.25;179242;1263;46045;-85
2023/04/22 11:34:02;;;;;;;6.30;5.60;;;;;;;21.10;43.14;99968.30;179473;1262;46032;-86
2023/04/22 11:38:05;;;;;;;7.90;4.70;;;;;;;21.20;44.01;99966.34;180698;1262;57883;-86
2023/04/22 11:42:08;;;;;;;8.50;7.30;;;;;;;21.19;44.97;99963.76;179693;1265;44591;-85
2023/04/22 11:46:11;;;;;;;6.50;5.50;;;;;;;21.34;42.93;99962.54;178680;1262;46208;-85
2023/04/22 11:50:14;;;;;;;5.70;5.20;;;;;;;21.37;44.34;99956.89;179668;1265;46040;-86
2023/04/22 11:54:29;;;;;;;6.70;5.60;;;;;;;21.42;43.32;99951.48;179349;1260;43964;-86
2023/04/22 11:58:37;;;;;;;8.70;5.80;;;;;;;21.45;43.74;99949.71;177811;1262;58318;-85
2023/04/22 12:02:40;;;;;;;12.20;6.00;;;;;;;21.58;43.25;99948.38;177854;1265;45969;-85
2023/04/22 12:06:45;;;;;;;6.20;5.00;;;;;;;21.64;43.25;99952.52;177570;1265;46114;-85
2023/04/22 12:10:52;;;;;;;11.60;5.60;;;;;;;21.61;44.61;99946.17;177123;1265;46144;-85
2023/04/22 12:14:56;;;;;;;9.50;5.70;;;;;;;21.65;43.78;99948.12;177481;1263;45991;-85
2023/04/22 12:19:02;;;;;;;9.70;6.20;;;;;;;21.64;43.10;99942.07;177411;1262;59263;-86
2023/04/22 12:23:12;;;;;;;5.40;4.10;;;;;;;21.59;42.80;99934.32;177712;1263;46033;-85
2023/04/22 12:27:15;;;;;;;5.20;4.60;;;;;;;21.53;44.54;99928.56;178370;1261;46106;-85
2023/04/22 12:31:18;;;;;;;10.90;6.00;;;;;;;21.65;43.91;99922.69;177773;1260;46117;-85
2023/04/22 12:35:22;;;;;;;8.60;5.00;;;;;;;21.73;43.89;99914.44;177499;1266;45267;-85
2023/04/22 12:39:25;;;;;;;11.10;5.70;;;;;;;21.80;46.08;99914.02;177527;1262;57900;-85
2023/04/22 12:43:28;;;;;;;5.30;4.60;;;;;;;21.87;45.40;99911.90;177229;1261;46119;-85
2023/04/22 12:47:32;;;;;;;9.80;5.60;;;;;;;21.74;44.90;99906.98;177176;1262;46221;-85
2023/04/22 12:51:35;;;;;;;6.60;5.00;;;;;;;21.73;45.12;99900.71;177053;1265;46106;-85
2023/04/22 12:55:38;;;;;;;7.40;6.00;;;;;;;21.83;46.12;99900.98;178084;1260;46062;-85
2023/04/22 12:59:41;;;;;;;9.30;5.70;;;;;;;21.89;44.99;99902.94;177495;1265;58176;-84
2023/04/22 13:03:44;;;;;;;6.00;5.20;;;;;;;21.92;44.39;99889.52;177570;1262;45988;-85
2023/04/22 13:07:48;;;;;;;12.80;5.50;;;;;;;21.98;45.41;99885.81;178519;1261;45348;-85
2023/04/22 13:12:08;;;;;;;8.10;5.40;;;;;;;21.94;43.90;99876.95;177782;1261;45959;-85
2023/04/22 13:16:11;;;;;;;7.40;5.30;;;;;;;21.91;46.19;99873.20;177854;1264;45145;-85
2023/04/22 13:20:15;;;;;;;6.50;5.40;;;;;;;22.01;47.47;99867.45;178612;1260;58308;-86
2023/04/22 13:24:18;;;;;;;6.90;4.90;;;;;;;22.02;44.86;99865.77;177356;1262;46065;-86
2023/04/22 13:28:21;;;;;;;5.30;4.40;;;;;;;22.01;45.57;99859.88;178856;1261;46114;-87
2023/04/22 13:32:24;;;;;;;6.10;4.60;;;;;;;21.96;45.49;99859.19;177510;1262;46120;-84
2023/04/22 13:36:28;;;;;;;5.50;4.70;;;;;;;21.87;45.08;99855.67;178279;1262;46051;-85
2023/04/22 13:40:31;;;;;;;6.50;4.60;;;;;;;21.94;45.14;99855.45;178010;1262;59828;-83
2023/04/22 13:44:34;;;;;;;6.50;4.80;;;;;;;21.86;44.70;99851.84;178868;1262;44735;-84
2023/04/22 13:48:38;;;;;;;11.70;4.30;;;;;;;21.89;43.63;99850.92;179132;1265;46208;-84
2023/04/22 13:52:41;;;;;;;30.10;7.70;;;;;;;21.94;45.10;99846.49;178311;1264;46195;-84
2023/04/22 13:56:44;;;;;;;8.90;4.90;;;;;;;21.91;45.19;99842.34;177837;1262;46232;-84
2023/04/22 14:00:47;;;;;;;5.80;5.20;;;;;;;21.91;44.18;99843.05;178512;1266;58080;-83
2023/04/22 14:04:51;;;;;;;5.00;4.10;;;;;;;21.90;44.57;99841.50;178253;1264;45908;-83
2023/04/22 14:08:54;;;;;;;12.50;4.80;;;;;;;21.86;45.47;99839.89;179989;1264;43345;-83
2023/04/22 14:12:57;;;;;;;6.80;4.10;;;;;;;21.89;45.01;99839.00;177753;1265;46096;-83
2023/04/22 14:17:00;;;;;;;6.20;4.00;;;;;;;21.92;44.77;99833.92;177743;1265;44644;-83
2023/04/22 14:21:05;;;;;;;5.70;3.90;;;;;;;21.93;43.70;99830.34;179082;1260;58463;-82
2023/04/22 14:25:09;;;;;;;6.60;4.80;;;;;;;21.95;45.69;99827.81;179518;1261;45958;-83
2023/04/22 14:29:12;;;;;;;7.10;4.30;;;;;;;21.91;46.81;99825.79;179479;1260;46124;-84
2023/04/22 14:33:16;;;;;;;4.90;4.30;;;;;;;21.97;46.62;99822.52;177457;1263;44141;-84
2023/04/22 14:37:19;;;;;;;5.70;4.50;;;;;;;21.97;46.37;99819.38;178275;1263;45972;-85
2023/04/22 14:41:24;;;;;;;7.00;4.80;;;;;;;21.98;44.28;99813.03;177576;1261;59746;-84
2023/04/22 14:45:29;;;;;;;8.60;5.50;;;;;;;21.96;45.96;99810.36;178005;1266;46079;-84
2023/04/22 14:49:32;;;;;;;7.00;4.60;;;;;;;21.86;44.99;99806.86;178475;1264;46083;-83
2023/04/22 14:53:36;;;;;;;6.80;4.60;;;;;;;21.89;45.14;99804.69;177858;1263;46070;-84
2023/04/22 14:57:39;;;;;;;4.40;3.80;;;;;;;21.95;46.86;99797.21;178272;1263;46111;-84
2023/04/22 15:01:41;;;;;;;5.70;4.00;;;;;;;22.00;46.73;99793.07;177467;1265;58023;-84
2023/04/22 15:05:48;;;;;;;5.50;4.10;;;;;;;22.02;45.50;99793.85;177026;1264;46050;-83
2023/04/22 15:09:51;;;;;;;5.80;4.10;;;;;;;21.96;44.33;99791.30;178351;1264;46159;-85
2023/04/22 15:13:54;;;;;;;5.70;3.30;;;;;;;21.98;45.47;99791.03;178023;1262;46021;-84
2023/04/22 15:17:57;;;;;;;4.60;3.40;;;;;;;21.90;44.73;99788.10;178010;1263;46183;-84
2023/04/22 15:22:01;;;;;;;14.80;5.10;;;;;;;21.88;44.56;99786.02;177567;1263;57073;-85
2023/04/22 15:26:04;;;;;;;6.90;4.20;;;;;;;21.85;44.57;99784.63;179603;1264;45956;-85
2023/04/22 15:30:09;;;;;;;4.20;3.60;;;;;;;21.75;44.60;99783.19;180016;1262;44081;-84
2023/04/22 15:34:13;;;;;;;4.50;3.60;;;;;;;21.65;45.53;99781.20;178522;1263;45997;-84
2023/04/22 15:38:16;;;;;;;4.50;3.40;;;;;;;21.66;46.73;99778.92;180032;1263;44104;-84
2023/04/22 15:42:19;;;;;;;5.00;4.10;;;;;;;21.62;46.45;99775.65;178327;1262;59358;-84
2023/04/22 15:46:22;;;;;;;5.30;3.30;;;;;;;21.64;48.36;99774.91;178058;1263;46063;-84
2023/04/22 15:50:26;;;;;;;10.90;4.10;;;;;;;21.56;47.00;99771.58;178286;1262;45978;-84
2023/04/22 15:54:29;;;;;;;9.50;4.20;;;;;;;21.50;48.26;99772.59;178121;1264;45964;-83
2023/04/22 15:58:32;;;;;;;6.70;4.70;;;;;;;21.44;48.17;99767.66;177827;1264;45957;-84
2023/04/22 16:02:36;;;;;;;8.40;3.20;;;;;;;21.40;47.60;99764.57;178076;1263;58129;-83
2023/04/22 16:06:40;;;;;;;4.20;3.60;;;;;;;21.36;48.55;99764.95;177401;1264;46082;-82
2023/04/22 16:10:43;;;;;;;6.00;4.80;;;;;;;21.22;47.37;99760.09;177102;1266;46117;-83
2023/04/22 16:14:46;;;;;;;4.90;4.30;;;;;;;21.16;48.66;99757.60;177672;1266;46040;-83
2023/04/22 16:18:49;;;;;;;10.20;6.00;;;;;;;21.10;49.34;99754.73;177734;1263;45987;-84
2023/04/22 16:22:52;;;;;;;7.90;5.30;;;;;;;21.06;50.03;99754.82;177709;1262;59298;-84
2023/04/22 16:26:55;;;;;;;21.00;16.30;;;;;;;20.99;51.15;99752.98;177976;1264;46091;-84
2023/04/22 16:30:59;;;;;;;21.10;17.80;;;;;;;20.93;50.80;99749.85;177314;1264;44115;-84
2023/04/22 16:35:03;;;;;;;21.60;17.50;;;;;;;20.84;51.96;99746.36;177761;1262;44197;-84
2023/04/22 16:39:06;;;;;;;24.20;12.70;;;;;;;20.77;53.09;99741.46;178272;1263;44177;-83
2023/04/22 16:43:11;;;;;;;14.00;9.00;;;;;;;20.60;54.21;99743.52;176963;1266;58255;-83
2023/04/22 16:47:14;;;;;;;14.90;8.90;;;;;;;20.40;54.53;99742.57;178027;1264;46016;-83
2023/04/22 16:51:17;;;;;;;25.80;7.30;;;;;;;20.22;55.43;99737.35;177516;1264;45499;-83
2023/04/22 16:55:20;;;;;;;11.10;9.60;;;;;;;20.03;55.95;99735.09;177070;1264;46108;-84
2023/04/22 16:59:23;;;;;;;11.40;6.10;;;;;;;19.81;56.41;99732.02;177525;1265;46076;-83
2023/04/22 17:03:26;;;;;;;17.20;7.90;;;;;;;19.58;57.41;99727.41;178374;1263;59234;-83
2023/04/22 17:07:30;;;;;;;10.20;7.20;;;;;;;19.33;58.12;99729.54;178136;1260;44457;-84
2023/04/22 17:11:33;;;;;;;11.10;8.30;;;;;;;19.10;58.87;99729.55;177736;1263;46108;-82
2023/04/22 17:15:36;;;;;;;14.00;8.80;;;;;;;18.86;59.28;99724.96;178156;1264;46203;-83
2023/04/22 17:19:39;;;;;;;14.90;13.30;;;;;;;18.69;59.40;99721.67;176982;1265;46161;-83
2023/04/22 17:23:42;;;;;;;13.50;9.10;;;;;;;18.51;59.74;99722.48;178036;1263;58073;-84
2023/04/22 17:27:45;;;;;;;10.20;8.20;;;;;;;18.32;61.40;99721.21;177678;1262;46157;-84
2023/04/22 17:31:49;;;;;;;14.50;8.90;;;;;;;18.08;62.83;99719.89;177658;1262;46102;-84
2023/04/22 17:35:52;;;;;;;13.20;10.00;;;;;;;17.82;63.87;99721.35;177088;1262;46120;-84
2023/04/22 17:39:55;;;;;;;13.40;10.10;;;;;;;17.55;65.27;99721.66;178156;1264;46051;-85
2023/04/22 17:43:58;;;;;;;20.40;13.40;;;;;;;17.29;65.88;99717.84;177375;1260;57937;-86
2023/04/22 17:48:01;;;;;;;16.80;12.00;;;;;;;17.09;65.68;99721.13;176948;1264;46061;-87
2023/04/22 17:52:05;;;;;;;16.90;12.10;;;;;;;16.86;66.01;99726.04;177998;1261;46136;-87
2023/04/22 17:56:09;;;;;;;15.20;9.50;;;;;;;16.61;66.48;99719.45;177750;1263;46191;-86
2023/04/22 18:00:16;;;;;;;13.70;10.70;;;;;;;16.43;65.75;99722.23;177477;1263;46125;-87
2023/04/22 18:04:19;;;;;;;18.00;11.50;;;;;;;16.25;66.25;99729.27;177309;1262;59036;-87
2023/04/22 18:08:23;;;;;;;15.60;11.40;;;;;;;16.04;66.98;99730.27;177239;1260;45985;-87
2023/04/22 18:12:28;;;;;;;19.40;16.40;;;;;;;15.76;68.45;99733.36;177958;1260;46043;-84
2023/04/22 18:16:32;;;;;;;39.70;28.10;;;;;;;15.43;70.41;99736.70;178155;1261;46105;-83
2023/04/22 18:20:36;;;;;;;49.30;35.30;;;;;;;15.25;70.74;99739.30;177917;1264;44831;-84
2023/04/22 18:24:39;;;;;;;57.30;36.10;;;;;;;15.08;71.46;99745.48;178016;1261;59999;-84
2023/04/22 18:28:43;;;;;;;34.40;29.40;;;;;;;14.91;72.12;99748.73;178281;1261;44139;-83
2023/04/22 18:32:47;;;;;;;28.80;21.70;;;;;;;14.79;72.47;99749.50;179484;1262;46028;-83
2023/04/22 18:36:50;;;;;;;20.90;13.80;;;;;;;14.69;73.04;99752.52;179740;1262;43995;-83
2023/04/22 18:40:54;;;;;;;23.60;16.40;;;;;;;14.56;73.15;99752.44;179505;1261;44076;-82
2023/04/22 18:44:57;;;;;;;15.90;11.90;;;;;;;14.31;73.60;99756.69;179355;1261;59597;-83
2023/04/22 18:49:00;;;;;;;14.80;10.20;;;;;;;14.18;73.68;99757.02;179641;1261;44159;-82
2023/04/22 18:53:03;;;;;;;14.40;10.50;;;;;;;14.09;73.74;99751.10;179295;1261;45951;-82
2023/04/22 18:57:06;;;;;;;17.00;11.40;;;;;;;13.92;74.59;99749.17;178991;1264;46107;-82
2023/04/22 19:01:10;;;;;;;15.80;13.00;;;;;;;13.80;74.93;99752.59;178652;1263;46112;-81
2023/04/22 19:05:13;;;;;;;18.80;11.50;;;;;;;13.69;75.11;99753.54;179751;1262;184568;-82
2023/04/22 19:09:18;;;;;;;15.80;12.50;;;;;;;13.55;75.52;99756.23;179583;1262;46119;-83
2023/04/22 19:13:21;;;;;;;14.80;10.60;;;;;;;13.45;75.65;99762.21;178837;1263;46081;-84
2023/04/22 19:17:33;;;;;;;14.40;11.30;;;;;;;13.34;75.80;99752.04;179851;1262;44278;-83
2023/04/22 19:21:38;;;;;;;18.20;14.40;;;;;;;13.26;75.35;99752.48;180296;1262;43842;-82
2023/04/22 19:25:41;;;;;;;28.90;19.40;;;;;;;13.22;75.12;99752.16;179441;1266;58063;-82
2023/04/22 19:29:49;;;;;;;30.60;22.30;;;;;;;13.21;74.14;99749.61;179625;1261;44375;-83
2023/04/22 19:33:53;;;;;;;37.60;23.70;;;;;;;13.03;74.19;99751.98;179059;1262;46508;-83
2023/04/22 19:37:55;;;;;;;45.10;29.00;;;;;;;12.84;74.52;99753.64;179589;1262;46152;-82
2023/04/22 19:42:02;;;;;;;34.10;24.70;;;;;;;12.67;75.50;99758.02;178486;1262;44479;-83
2023/04/22 19:46:06;;;;;;;40.30;27.40;;;;;;;12.41;75.59;99759.10;177336;1262;59619;-82
2023/04/22 19:50:10;;;;;;;38.60;27.70;;;;;;;12.10;76.08;99754.39;177423;1264;46140;-83
2023/04/22 19:54:14;;;;;;;35.40;23.80;;;;;;;11.95;78.59;99756.58;177876;1262;46058;-84
2023/04/22 19:58:18;;;;;;;29.40;19.50;;;;;;;11.98;79.13;99753.95;177113;1262;46152;-86
2023/04/22 20:02:22;;;;;;;24.40;16.30;;;;;;;12.07;78.45;99749.27;177249;1262;46088;-84
2023/04/22 20:06:27;;;;;;;26.80;18.70;;;;;;;12.12;78.17;99747.65;178787;1264;59834;-87
2023/04/22 20:10:31;;;;;;;38.70;23.10;;;;;;;12.16;78.31;99746.42;178486;1262;46090;-87
2023/04/22 20:14:34;;;;;;;43.20;26.20;;;;;;;12.12;78.56;99745.05;177358;1262;46031;-87
2023/04/22 20:18:38;;;;;;;34.50;22.70;;;;;;;12.13;78.41;99740.84;179360;1262;45971;-86
2023/04/22 20:22:42;;;;;;;44.70;26.00;;;;;;;12.04;79.45;99738.70;177014;1262;46104;-87
2023/04/22 20:26:49;;;;;;;45.90;27.70;;;;;;;11.96;79.97;99743.30;177874;1263;59849;-86
2023/04/22 20:30:52;;;;;;;43.50;22.70;;;;;;;11.95;80.23;99740.73;177226;1262;46083;-87
2023/04/22 20:34:55;;;;;;;38.10;24.10;;;;;;;11.96;80.06;99736.38;177896;1262;45995;-86
2023/04/22 20:39:04;;;;;;;34.30;24.00;;;;;;;11.94;80.03;99737.28;177934;1262;46065;-85
2023/04/22 20:43:07;;;;;;;36.00;23.50;;;;;;;11.85;80.78;99737.64;177719;1262;46078;-84
2023/04/22 20:47:12;;;;;;;38.30;23.30;;;;;;;11.75;81.36;99738.89;176802;1262;60281;-87
2023/04/22 20:51:16;;;;;;;30.00;22.90;;;;;;;11.63;81.30;99738.50;176660;1262;46059;-87
2023/04/22 20:55:19;;;;;;;33.10;23.90;;;;;;;11.54;81.33;99738.21;177002;1262;46042;-87
2023/04/22 20:59:23;;;;;;;33.00;23.60;;;;;;;11.44;81.56;99738.61;176823;1263;46435;-87
2023/04/22 21:03:27;;;;;;;34.20;22.70;;;;;;;11.39;80.81;99740.28;176873;1261;46231;-87
2023/04/22 21:07:32;;;;;;;34.70;22.90;;;;;;;11.39;80.87;99738.20;177139;1261;59901;-88
2023/04/22 21:11:37;;;;;;;33.30;21.20;;;;;;;11.33;80.72;99738.05;177127;1261;46014;-88
2023/04/22 21:15:47;;;;;;;30.50;21.60;;;;;;;11.31;81.17;99733.25;177172;1261;46439;-88
2023/04/22 21:19:52;;;;;;;29.70;20.60;;;;;;;11.34;81.01;99732.83;177022;1262;45991;-87
2023/04/22 21:24:00;;;;;;;34.80;23.90;;;;;;;11.27;79.68;99729.38;177417;1260;45873;-87
2023/04/22 21:28:04;;;;;;;38.30;24.20;;;;;;;11.16;79.08;99730.02;177839;1258;58322;-89
2023/04/22 21:32:08;;;;;;;34.30;24.60;;;;;;;11.07;79.57;99725.96;178899;1257;46061;-86
2023/04/22 21:36:12;;;;;;;29.70;20.10;;;;;;;10.96;80.49;99726.33;178663;1260;44843;-88
2023/04/22 21:40:15;;;;;;;24.80;18.50;;;;;;;10.84;81.10;99729.63;178381;1257;46010;-88
2023/04/22 21:44:19;;;;;;;28.40;17.00;;;;;;;10.78;81.83;99738.13;178441;1257;46401;-88
2023/04/22 21:48:22;;;;;;;32.20;21.60;;;;;;;10.72;82.07;99736.71;178694;1257;58128;-87
2023/04/22 21:52:25;;;;;;;29.10;19.90;;;;;;;10.71;81.25;99730.91;179002;1257;43784;-89
2023/04/22 21:56:32;;;;;;;25.60;18.80;;;;;;;10.72;80.75;99731.19;178656;1257;46012;-88
2023/04/22 22:00:37;;;;;;;23.70;16.80;;;;;;;10.79;81.01;99733.11;178726;1257;44874;-88
2023/04/22 22:04:40;;;;;;;29.80;16.80;;;;;;;10.82;80.87;99735.25;178659;1257;45475;-89
2023/04/22 22:08:45;;;;;;;27.80;19.30;;;;;;;10.83;80.52;99734.66;178505;1258;58235;-89
2023/04/22 22:12:49;;;;;;;36.10;24.70;;;;;;;10.84;80.65;99730.13;178863;1257;45597;-90
2023/04/22 22:16:53;;;;;;;41.70;27.00;;;;;;;10.86;79.89;99730.63;178725;1257;45887;-89
2023/04/22 22:21:01;;;;;;;43.90;26.00;;;;;;;10.78;80.10;99734.09;178686;1260;44775;-90
2023/04/22 22:25:06;;;;;;;37.40;24.70;;;;;;;10.69;80.89;99737.02;178361;1262;46124;-90
2023/04/22 22:29:14;;;;;;;31.60;23.70;;;;;;;10.52;81.65;99736.17;178851;1259;58269;-90
2023/04/22 22:33:18;;;;;;;41.50;25.60;;;;;;;10.40;82.32;99737.83;178893;1260;49459;-89
2023/04/22 22:37:21;;;;;;;37.50;23.80;;;;;;;10.30;82.97;99740.57;178979;1260;45997;-89
2023/04/22 22:41:25;;;;;;;44.00;22.60;;;;;;;10.22;83.13;99739.89;178924;1259;44923;-89
2023/04/22 22:45:29;;;;;;;25.00;17.30;;;;;;;10.13;83.80;99733.20;179172;1262;46086;-89
2023/04/22 22:49:32;;;;;;;25.20;19.10;;;;;;;10.12;83.83;99737.37;179426;1259;58319;-90
2023/04/22 22:53:36;;;;;;;34.40;21.90;;;;;;;10.12;83.63;99737.04;179278;1259;46073;-90
2023/04/22 22:57:39;;;;;;;31.90;21.80;;;;;;;10.12;83.20;99735.23;178451;1263;47925;-88
2023/04/22 23:01:43;;;;;;;25.20;18.00;;;;;;;10.09;83.51;99730.91;177975;1259;46030;-90
2023/04/22 23:05:47;;;;;;;23.70;18.50;;;;;;;9.97;84.73;99731.11;178293;1260;46216;-89
2023/04/22 23:09:52;;;;;;;26.60;18.00;;;;;;;9.84;85.46;99729.63;177910;1259;57969;-90
2023/04/22 23:13:56;;;;;;;27.00;18.00;;;;;;;9.75;86.11;99726.49;178008;1260;44080;-90
2023/04/22 23:18:00;;;;;;;25.30;16.50;;;;;;;9.71;86.17;99723.77;178669;1259;46096;-89
2023/04/22 23:22:06;;;;;;;33.60;19.90;;;;;;;9.69;86.35;99720.23;178425;1262;45965;-90
2023/04/22 23:26:10;;;;;;;22.30;19.50;;;;;;;9.72;86.32;99720.89;178329;1260;45984;-91
2023/04/22 23:30:13;;;;;;;32.60;19.60;;;;;;;9.72;86.48;99716.80;178369;1263;59502;-89
2023/04/22 23:34:21;;;;;;;24.00;18.50;;;;;;;9.70;86.73;99715.23;177894;1261;46455;-88
2023/04/22 23:38:24;;;;;;;24.40;16.50;;;;;;;9.69;86.96;99711.06;177771;1259;48161;-90
2023/04/22 23:42:28;;;;;;;21.10;18.60;;;;;;;9.65;87.03;99713.38;178385;1259;46246;-89
2023/04/22 23:46:31;;;;;;;25.60;16.70;;;;;;;9.56;87.58;99708.79;177902;1260;44748;-89
2023/04/22 23:50:34;;;;;;;21.30;15.40;;;;;;;9.46;87.84;99703.67;177976;1260;59747;-89
2023/04/22 23:54:38;;;;;;;19.80;15.60;;;;;;;9.40;88.35;99701.00;179124;1259;46110;-89
2023/04/22 23:58:43;;;;;;;24.40;16.40;;;;;;;9.40;88.35;99697.92;177856;1259;46128;-88
